Time;durP1;ratioP1;P1;durP2;ratioP2;P2;SDS_P1;SDS_P2;PMS_P1;PMS_P2;Temp;Humidity;BMP_temperature;BMP_pressure;BME280_temperature;BME280_humidity;BME280_pressure;Samples;Min_cycle;Max_cycle;Signal;HPM_P1;HPM_P2
2021/05/25 00:00:01;;;;;;;2.70;2.30;;;14.70;99.90;;;;;;5074739;28;20211;-67
2021/05/25 00:02:27;;;;;;;4.53;2.20;;;14.70;99.90;;;;;;5093068;28;20200;-67
2021/05/25 00:04:52;;;;;;;2.00;1.70;;;14.70;99.90;;;;;;5091277;28;20695;-68
2021/05/25 00:07:18;;;;;;;2.80;2.20;;;14.80;99.90;;;;;;5091937;28;20779;-68
2021/05/25 00:09:43;;;;;;;3.67;2.10;;;14.80;99.90;;;;;;5091959;28;20188;-67
2021/05/25 00:12:09;;;;;;;2.47;2.27;;;14.80;99.90;;;;;;5091206;28;20173;-67
2021/05/25 00:14:35;;;;;;;4.27;2.17;;;14.80;99.90;;;;;;5091492;28;20211;-68
2021/05/25 00:17:01;;;;;;;2.70;2.50;;;14.80;99.90;;;;;;5090674;28;20168;-67
2021/05/25 00:19:26;;;;;;;3.10;2.80;;;14.80;99.90;;;;;;5091893;28;20189;-69
2021/05/25 00:21:52;;;;;;;3.37;2.60;;;14.80;99.90;;;;;;5091753;28;20169;-68
2021/05/25 00:24:17;;;;;;;5.10;2.40;;;14.80;99.90;;;;;;5092070;28;20187;-68
2021/05/25 00:26:44;;;;;;;3.67;2.40;;;14.70;99.90;;;;;;5076276;28;20256;-68
2021/05/25 00:29:09;;;;;;;4.43;3.10;;;14.70;99.90;;;;;;5071400;28;20290;-69
2021/05/25 00:31:35;;;;;;;3.83;2.50;;;14.70;99.90;;;;;;5074095;28;20239;-68
2021/05/25 00:34:01;;;;;;;2.77;2.47;;;14.70;99.90;;;;;;5074267;28;20201;-68
2021/05/25 00:36:27;;;;;;;5.70;3.20;;;14.60;99.90;;;;;;5075365;28;20173;-68
2021/05/25 00:38:53;;;;;;;4.17;3.20;;;14.50;99.90;;;;;;5075097;28;20200;-68
2021/05/25 00:41:18;;;;;;;4.77;2.80;;;14.60;99.90;;;;;;5080246;28;20176;-67
2021/05/25 00:43:44;;;;;;;4.43;2.97;;;14.50;99.90;;;;;;5095520;28;20664;-68
2021/05/25 00:46:09;;;;;;;3.50;3.17;;;14.50;99.90;;;;;;5095235;28;20196;-67
2021/05/25 00:48:35;;;;;;;3.13;2.87;;;14.40;99.90;;;;;;5077000;28;20176;-67
2021/05/25 00:51:00;;;;;;;4.73;3.30;;;14.40;99.90;;;;;;5093927;28;20244;-66
2021/05/25 00:53:27;;;;;;;4.23;2.87;;;14.30;99.90;;;;;;5095438;28;20579;-69
2021/05/25 00:55:53;;;;;;;4.13;3.07;;;14.30;99.90;;;;;;5095816;28;20183;-67
2021/05/25 00:58:19;;;;;;;3.57;3.17;;;14.30;99.90;;;;;;5095158;28;20554;-68
2021/05/25 01:00:47;;;;;;;4.33;3.40;;;14.30;99.90;;;;;;5091132;22;20229;-65
2021/05/25 01:03:16;;;;;;;4.10;3.40;;;14.30;99.90;;;;;;5073491;28;20173;-65
2021/05/25 01:05:41;;;;;;;4.27;3.10;;;14.30;99.90;;;;;;5073763;28;20244;-67
2021/05/25 01:08:09;;;;;;;4.20;3.47;;;14.30;99.90;;;;;;5074012;28;20235;-65
2021/05/25 01:10:36;;;;;;;5.53;3.50;;;14.30;99.90;;;;;;5072344;28;20200;-65
2021/05/25 01:13:09;;;;;;;3.93;3.23;;;14.30;99.90;;;;;;5073598;28;20188;-66
2021/05/25 01:15:36;;;;;;;4.70;2.93;;;14.30;99.90;;;;;;5073326;28;20184;-65
2021/05/25 01:18:03;;;;;;;5.67;3.80;;;14.30;99.90;;;;;;5072708;28;20173;-65
2021/05/25 01:20:32;;;;;;;4.63;3.17;;;14.30;99.90;;;;;;5072855;28;20188;-65
2021/05/25 01:22:58;;;;;;;5.20;2.97;;;14.30;99.90;;;;;;5073212;28;20211;-65
2021/05/25 01:25:25;;;;;;;2.77;2.57;;;14.40;99.90;;;;;;5073110;28;20200;-65
2021/05/25 01:27:57;;;;;;;5.40;3.50;;;14.40;99.90;;;;;;5072455;28;20559;-65
2021/05/25 01:30:29;;;;;;;5.30;3.27;;;14.40;99.90;;;;;;5054070;28;20599;-65
2021/05/25 01:32:55;;;;;;;2.93;2.27;;;14.40;99.90;;;;;;5073209;28;20702;-65
2021/05/25 01:48:49;;;;;;;3.50;2.90;;;14.30;99.90;;;;;;5070132;28;20238;-65
2021/05/25 01:51:15;;;;;;;3.87;2.87;;;14.30;99.90;;;;;;5072803;28;20173;-65
2021/05/25 01:53:40;;;;;;;3.80;2.77;;;14.30;99.90;;;;;;5072768;28;20672;-65
2021/05/25 01:56:06;;;;;;;5.37;3.30;;;14.30;99.90;;;;;;5072711;28;20169;-65
2021/05/25 01:58:33;;;;;;;4.17;3.03;;;14.20;99.90;;;;;;5072598;28;20176;-65
2021/05/25 02:01:03;;;;;;;5.30;3.10;;;14.20;99.90;;;;;;5071914;28;20272;-65
2021/05/25 02:03:29;;;;;;;5.17;2.83;;;14.10;99.90;;;;;;5072436;28;20229;-66
2021/05/25 02:05:56;;;;;;;3.30;3.00;;;14.00;99.90;;;;;;5072539;28;20173;-65
2021/05/25 02:08:22;;;;;;;5.93;3.00;;;13.90;99.90;;;;;;5072396;28;20177;-65
2021/05/25 02:10:49;;;;;;;3.47;3.00;;;13.90;99.90;;;;;;5072071;28;20204;-65
2021/05/25 02:13:17;;;;;;;3.47;2.90;;;13.80;99.90;;;;;;5072085;28;20208;-65
2021/05/25 02:15:45;;;;;;;4.03;2.97;;;13.80;99.90;;;;;;5072518;28;20173;-65
2021/05/25 02:18:19;;;;;;;5.13;2.80;;;13.80;99.90;;;;;;5072223;28;20172;-65
2021/05/25 02:20:47;;;;;;;4.13;3.03;;;13.70;99.90;;;;;;5072218;28;20208;-65
2021/05/25 02:23:13;;;;;;;4.47;2.93;;;13.70;99.90;;;;;;5072547;28;20177;-65
2021/05/25 02:25:39;;;;;;;3.10;2.80;;;13.60;99.90;;;;;;5072134;28;20188;-65
2021/05/25 02:28:06;;;;;;;4.13;2.70;;;13.50;99.90;;;;;;5072001;28;20177;-65
2021/05/25 02:30:33;;;;;;;5.07;3.10;;;13.50;99.90;;;;;;5071693;28;20673;-65
2021/05/25 02:33:00;;;;;;;4.47;2.30;;;13.40;99.90;;;;;;5071859;28;20562;-65
2021/05/25 02:35:25;;;;;;;4.03;2.67;;;13.40;99.90;;;;;;5071790;28;20859;-65
2021/05/25 02:37:51;;;;;;;3.13;2.23;;;13.30;99.90;;;;;;5054099;28;20288;-65
2021/05/25 02:40:17;;;;;;;3.97;2.53;;;13.30;99.90;;;;;;5071683;28;20189;-64
2021/05/25 02:42:43;;;;;;;2.83;2.53;;;13.20;99.90;;;;;;5071488;28;20581;-66
2021/05/25 02:45:11;;;;;;;3.63;2.10;;;13.20;99.90;;;;;;5071733;28;20173;-66
2021/05/25 02:47:36;;;;;;;2.60;2.20;;;13.10;99.90;;;;;;5071830;28;20199;-66
2021/05/25 02:50:07;;;;;;;3.10;2.27;;;13.10;99.90;;;;;;5071606;28;20677;-66
2021/05/25 02:52:35;;;;;;;3.60;2.43;;;13.00;99.90;;;;;;5071576;28;20184;-66
2021/05/25 02:55:01;;;;;;;2.87;2.57;;;13.10;99.90;;;;;;5070742;28;20204;-66
2021/05/25 02:57:27;;;;;;;2.47;2.00;;;13.10;99.90;;;;;;5072016;28;20171;-66
2021/05/25 02:59:52;;;;;;;4.30;2.00;;;13.10;99.90;;;;;;5071473;28;20213;-66
2021/05/25 03:02:18;;;;;;;2.40;1.93;;;13.10;99.90;;;;;;5071231;28;20243;-66
2021/05/25 03:04:43;;;;;;;4.43;2.30;;;13.10;99.90;;;;;;5071280;28;20180;-66
2021/05/25 03:07:09;;;;;;;3.07;2.30;;;13.10;99.90;;;;;;5071403;28;20177;-65
2021/05/25 03:09:34;;;;;;;2.67;2.00;;;13.10;99.90;;;;;;5071057;28;20707;-65
2021/05/25 03:12:00;;;;;;;1.93;1.77;;;13.10;99.90;;;;;;5070960;28;20187;-65
2021/05/25 03:14:26;;;;;;;3.07;1.80;;;13.00;99.90;;;;;;5071231;28;20201;-65
2021/05/25 03:16:51;;;;;;;3.60;1.70;;;13.10;99.90;;;;;;5071394;28;20191;-65
2021/05/25 03:19:17;;;;;;;3.17;1.77;;;13.10;99.90;;;;;;5070969;28;20189;-65
2021/05/25 03:21:42;;;;;;;1.90;1.53;;;13.10;99.90;;;;;;5070757;28;20165;-66
2021/05/25 03:24:08;;;;;;;3.83;1.93;;;13.10;99.90;;;;;;5070840;28;20180;-66
2021/05/25 03:26:34;;;;;;;2.37;1.67;;;13.00;99.90;;;;;;5070911;28;20185;-66
2021/05/25 03:28:59;;;;;;;2.57;1.70;;;13.00;99.90;;;;;;5070837;28;20177;-66
2021/05/25 03:31:25;;;;;;;3.43;1.80;;;13.10;99.90;;;;;;5070678;28;20271;-66
2021/05/25 03:33:50;;;;;;;2.33;1.60;;;13.10;99.90;;;;;;5070792;28;20334;-66
2021/05/25 03:36:16;;;;;;;2.87;1.57;;;13.00;99.90;;;;;;5071138;28;20256;-66
2021/05/25 03:38:41;;;;;;;2.57;1.60;;;13.00;99.90;;;;;;5070740;28;20176;-66
2021/05/25 03:41:07;;;;;;;4.30;1.87;;;12.90;99.90;;;;;;5070281;28;20278;-66
2021/05/25 03:43:32;;;;;;;1.77;1.40;;;12.90;99.90;;;;;;5070920;28;20181;-66
2021/05/25 03:45:58;;;;;;;1.90;1.50;;;12.90;99.90;;;;;;5070817;28;20200;-66
2021/05/25 03:48:23;;;;;;;1.40;1.20;;;12.80;99.90;;;;;;5070887;28;20542;-66
2021/05/25 03:50:48;;;;;;;2.03;1.60;;;12.90;99.90;;;;;;5070591;28;20287;-66
2021/05/25 03:53:14;;;;;;;1.80;1.30;;;12.90;99.90;;;;;;5052672;28;20207;-66
2021/05/25 03:55:54;;;;;;;1.27;1.17;;;12.90;99.90;;;;;;5049971;28;20173;-66
2021/05/25 04:01:04;;;;;;;2.87;1.70;;;12.80;99.90;;;;;;5070671;28;20214;-66
2021/05/25 04:03:30;;;;;;;2.83;1.30;;;12.80;99.90;;;;;;5071050;28;20180;-66
2021/05/25 04:05:56;;;;;;;2.00;1.50;;;12.80;99.90;;;;;;5070352;28;20180;-66
2021/05/25 04:08:21;;;;;;;1.40;1.20;;;12.80;99.90;;;;;;5070610;28;20602;-66
2021/05/25 04:10:48;;;;;;;4.47;2.20;;;12.70;99.90;;;;;;5070048;28;20192;-66
2021/05/25 04:13:14;;;;;;;2.43;2.17;;;12.70;99.90;;;;;;5070218;28;20181;-66
2021/05/25 04:15:48;;;;;;;4.80;1.93;;;12.70;99.90;;;;;;5070382;28;20230;-66
2021/05/25 04:18:14;;;;;;;2.83;2.00;;;12.80;99.90;;;;;;5071273;28;20174;-66
2021/05/25 04:20:40;;;;;;;3.27;2.17;;;12.70;99.90;;;;;;5070382;28;20280;-66
2021/05/25 04:23:06;;;;;;;2.77;2.00;;;12.70;99.90;;;;;;5070271;28;20705;-66
2021/05/25 04:25:31;;;;;;;4.43;2.20;;;12.70;99.90;;;;;;5070396;28;20177;-67
2021/05/25 04:27:57;;;;;;;3.90;2.10;;;12.70;99.90;;;;;;5070326;28;20185;-66
2021/05/25 04:30:23;;;;;;;2.87;1.93;;;12.80;99.90;;;;;;5070428;28;20201;-66
2021/05/25 04:32:50;;;;;;;2.43;2.17;;;12.80;99.90;;;;;;5070110;28;20184;-66
2021/05/25 04:35:16;;;;;;;3.03;1.80;;;12.80;99.90;;;;;;5070403;28;20209;-66
2021/05/25 04:37:41;;;;;;;2.40;2.20;;;12.90;99.90;;;;;;5070363;28;20180;-66
2021/05/25 04:40:08;;;;;;;2.20;2.00;;;12.80;99.90;;;;;;5070189;28;20197;-69
2021/05/25 04:42:33;;;;;;;2.80;2.40;;;12.80;99.90;;;;;;5070060;28;20178;-66
2021/05/25 04:44:58;;;;;;;2.77;2.30;;;12.80;99.90;;;;;;5070193;28;20184;-67
2021/05/25 04:47:24;;;;;;;6.93;2.50;;;12.70;99.90;;;;;;5070104;28;20215;-66
2021/05/25 04:49:50;;;;;;;2.17;2.03;;;12.70;99.90;;;;;;5070033;28;20197;-67
2021/05/25 04:52:15;;;;;;;4.03;3.60;;;12.60;99.90;;;;;;5069753;28;20525;-68
2021/05/25 04:54:41;;;;;;;2.33;2.13;;;12.70;99.90;;;;;;5069845;28;20212;-67
2021/05/25 04:57:06;;;;;;;2.27;2.10;;;12.70;99.90;;;;;;5068601;28;20280;-66
2021/05/25 04:59:32;;;;;;;2.37;2.17;;;12.70;99.90;;;;;;5068269;28;20283;-69
2021/05/25 05:01:58;;;;;;;3.30;2.23;;;12.80;99.90;;;;;;5067875;28;20582;-70
2021/05/25 05:04:23;;;;;;;3.00;2.00;;;12.80;99.90;;;;;;5069203;28;20545;-70
2021/05/25 05:06:48;;;;;;;4.03;2.37;;;12.90;99.90;;;;;;5068216;28;20184;-70
2021/05/25 05:09:14;;;;;;;4.13;2.63;;;13.00;99.90;;;;;;5067948;28;20506;-70
2021/05/25 05:11:41;;;;;;;4.70;2.77;;;13.10;99.90;;;;;;5068875;28;20181;-70
2021/05/25 05:14:06;;;;;;;4.30;2.23;;;13.00;99.90;;;;;;5071891;28;20211;-70
2021/05/25 05:16:32;;;;;;;2.70;2.50;;;13.00;99.90;;;;;;5074746;28;20170;-70
2021/05/25 05:18:57;;;;;;;5.47;3.20;;;13.00;99.90;;;;;;5059121;28;20185;-70
2021/05/25 05:21:23;;;;;;;5.03;2.60;;;13.00;99.90;;;;;;5083525;28;20201;-70
2021/05/25 05:23:48;;;;;;;3.40;3.07;;;13.00;99.90;;;;;;5075361;28;20200;-70
2021/05/25 05:26:14;;;;;;;5.67;2.87;;;13.10;99.90;;;;;;5083538;28;20205;-70
2021/05/25 05:28:40;;;;;;;5.23;2.77;;;13.20;99.90;;;;;;5081632;28;20172;-70
2021/05/25 05:31:05;;;;;;;3.10;2.63;;;13.40;99.90;;;;;;5081148;28;20188;-70
2021/05/25 05:33:31;;;;;;;2.90;2.70;;;13.60;99.90;;;;;;5059702;28;20169;-70
2021/05/25 05:35:56;;;;;;;3.30;3.03;;;13.80;99.90;;;;;;5073612;28;20169;-69
2021/05/25 05:38:25;;;;;;;6.13;2.77;;;14.00;99.90;;;;;;5073362;28;20248;-70
2021/05/25 05:40:51;;;;;;;4.33;3.03;;;14.10;99.90;;;;;;5077185;28;20676;-71
2021/05/25 05:43:20;;;;;;;6.50;3.13;;;14.10;99.90;;;;;;5083376;28;20234;-69
2021/05/25 05:45:45;;;;;;;4.57;2.67;;;14.10;99.90;;;;;;5083102;28;20193;-69
2021/05/25 05:48:11;;;;;;;5.33;2.70;;;14.20;99.90;;;;;;5075639;28;20231;-71
2021/05/25 05:50:37;;;;;;;4.20;2.43;;;14.30;99.90;;;;;;5074910;28;20209;-71
2021/05/25 05:53:02;;;;;;;6.17;2.73;;;14.30;99.90;;;;;;5080382;28;20610;-71
2021/05/25 05:55:29;;;;;;;4.33;2.73;;;14.30;99.90;;;;;;5075768;28;20283;-71
2021/05/25 05:57:55;;;;;;;5.27;2.60;;;14.30;99.90;;;;;;5072942;28;20169;-71
2021/05/25 06:00:22;;;;;;;2.97;2.40;;;14.40;99.90;;;;;;5072875;28;20349;-71
2021/05/25 06:02:47;;;;;;;3.00;2.40;;;14.40;99.90;;;;;;5073408;28;20176;-71
2021/05/25 06:05:13;;;;;;;2.60;2.40;;;14.40;99.90;;;;;;5055334;28;20177;-71
2021/05/25 06:07:39;;;;;;;2.97;2.37;;;14.40;99.90;;;;;;5073186;28;20177;-70
2021/05/25 06:10:06;;;;;;;2.93;2.13;;;14.50;99.90;;;;;;5073138;28;20574;-70
2021/05/25 06:12:31;;;;;;;4.67;3.80;;;14.50;99.90;;;;;;5072992;28;20180;-69
2021/05/25 06:14:57;;;;;;;4.13;2.03;;;14.50;99.90;;;;;;5074174;28;20252;-70
2021/05/25 06:17:23;;;;;;;2.83;2.27;;;14.70;99.90;;;;;;5074494;28;20177;-70
2021/05/25 06:19:48;;;;;;;3.17;2.57;;;14.70;99.90;;;;;;5073687;28;20197;-71
2021/05/25 06:22:14;;;;;;;3.43;2.63;;;14.90;99.90;;;;;;5055985;28;20694;-69
2021/05/25 06:24:39;;;;;;;3.07;2.77;;;15.00;99.90;;;;;;5075849;28;20203;-69
2021/05/25 06:27:05;;;;;;;3.80;2.20;;;15.10;99.90;;;;;;5073691;28;20242;-70
2021/05/25 06:29:31;;;;;;;2.57;2.37;;;15.30;99.90;;;;;;5073551;28;20203;-70
2021/05/25 06:32:00;;;;;;;2.57;2.10;;;15.30;99.90;;;;;;5073233;28;20216;-70
2021/05/25 06:34:29;;;;;;;2.93;2.10;;;15.30;99.90;;;;;;5072939;28;20205;-69
2021/05/25 06:36:55;;;;;;;2.93;2.67;;;15.30;99.90;;;;;;5072799;28;20202;-70
2021/05/25 06:39:21;;;;;;;2.87;2.10;;;15.20;99.90;;;;;;5072491;28;20189;-70
2021/05/25 06:41:47;;;;;;;4.90;2.40;;;15.40;99.90;;;;;;5072511;28;20169;-70
2021/05/25 06:44:12;;;;;;;4.23;2.20;;;15.50;99.90;;;;;;5071969;28;20218;-69
2021/05/25 06:46:38;;;;;;;2.73;2.03;;;15.80;99.90;;;;;;5072318;28;20188;-69
2021/05/25 06:49:03;;;;;;;4.40;2.07;;;15.90;99.90;;;;;;5072205;28;20180;-70
2021/05/25 06:51:29;;;;;;;3.10;2.03;;;16.10;99.90;;;;;;5071969;28;20629;-70
2021/05/25 06:53:55;;;;;;;3.83;2.93;;;16.20;99.90;;;;;;5072383;28;20197;-70
2021/05/25 06:56:20;;;;;;;3.93;2.50;;;16.40;99.90;;;;;;5072116;28;20173;-70
2021/05/25 06:58:46;;;;;;;8.97;2.30;;;16.50;99.90;;;;;;5071866;28;20181;-70
2021/05/25 07:01:12;;;;;;;4.00;2.23;;;16.70;99.90;;;;;;5091936;22;20233;-69
2021/05/25 07:03:37;;;;;;;2.40;2.17;;;16.70;99.90;;;;;;5073927;28;20176;-68
2021/05/25 07:06:03;;;;;;;3.03;2.23;;;16.60;99.90;;;;;;5072664;28;20173;-68
2021/05/25 07:08:28;;;;;;;2.00;1.50;;;16.50;99.90;;;;;;5072575;28;20184;-68
2021/05/25 07:10:54;;;;;;;1.63;1.53;;;16.20;99.90;;;;;;5071729;28;20601;-69
2021/05/25 07:13:19;;;;;;;1.57;1.40;;;16.20;99.90;;;;;;5072263;28;20173;-67
2021/05/25 07:15:45;;;;;;;3.37;1.70;;;16.20;99.90;;;;;;5072136;28;20169;-67
2021/05/25 07:18:12;;;;;;;3.50;2.10;;;16.20;99.90;;;;;;5070993;28;20251;-67
2021/05/25 07:20:38;;;;;;;2.53;2.13;;;16.30;99.90;;;;;;5074455;28;20197;-68
2021/05/25 07:23:03;;;;;;;3.33;2.27;;;16.40;99.90;;;;;;5072167;28;20542;-67
2021/05/25 07:25:29;;;;;;;2.47;1.70;;;16.30;99.90;;;;;;5071909;28;20260;-68
2021/05/25 07:27:57;;;;;;;1.67;1.50;;;16.20;99.90;;;;;;5071786;28;20181;-67
2021/05/25 07:30:23;;;;;;;2.40;1.40;;;16.20;99.90;;;;;;5071370;28;20223;-67
2021/05/25 07:32:49;;;;;;;3.83;1.70;;;16.10;99.90;;;;;;5071242;28;20257;-67
2021/05/25 07:35:15;;;;;;;5.93;4.17;;;16.00;99.90;;;;;;5071240;28;20642;-68
2021/05/25 07:37:41;;;;;;;3.97;2.77;;;16.00;99.90;;;;;;5071400;28;20188;-67
2021/05/25 07:40:08;;;;;;;3.30;1.57;;;16.10;99.90;;;;;;5070195;28;20196;-67
2021/05/25 07:42:34;;;;;;;3.43;1.63;;;16.20;99.90;;;;;;5070815;28;20223;-74
2021/05/25 07:44:59;;;;;;;1.90;1.60;;;16.30;99.90;;;;;;5070497;28;20173;-67
2021/05/25 07:47:27;;;;;;;2.47;1.57;;;16.50;99.90;;;;;;5070629;28;20706;-67
2021/05/25 07:49:53;;;;;;;2.60;1.43;;;16.70;99.90;;;;;;5070686;28;20276;-67
2021/05/25 07:52:18;;;;;;;2.57;1.50;;;16.60;99.90;;;;;;5070156;28;20253;-68
2021/05/25 07:54:44;;;;;;;4.77;1.80;;;16.60;99.90;;;;;;5070339;28;20286;-67
2021/05/25 07:57:09;;;;;;;4.10;1.87;;;16.70;99.90;;;;;;5070333;28;20295;-67
2021/05/25 07:59:37;;;;;;;2.10;1.67;;;16.60;99.90;;;;;;5070063;28;20185;-67
2021/05/25 08:02:03;;;;;;;1.87;1.67;;;16.50;99.90;;;;;;5069356;28;20181;-67
2021/05/25 08:04:28;;;;;;;2.80;2.43;;;16.30;99.90;;;;;;5052237;28;20173;-67
2021/05/25 08:06:54;;;;;;;2.63;1.80;;;16.40;99.90;;;;;;5070725;28;20665;-68
2021/05/25 08:09:20;;;;;;;2.87;1.87;;;16.20;99.90;;;;;;5070189;28;20180;-68
2021/05/25 08:11:45;;;;;;;3.77;2.57;;;15.90;99.90;;;;;;5070130;28;20191;-68
2021/05/25 08:14:11;;;;;;;2.87;2.27;;;15.90;99.90;;;;;;5070401;28;20228;-68
2021/05/25 08:16:39;;;;;;;3.20;1.90;;;15.70;99.90;;;;;;5070330;28;20268;-68
2021/05/25 08:19:16;;;;;;;2.20;1.60;;;15.70;99.90;;;;;;5070423;28;20173;-65
2021/05/25 08:21:42;;;;;;;2.60;1.90;;;15.90;99.90;;;;;;5070168;28;20184;-68
2021/05/25 08:24:08;;;;;;;2.20;1.50;;;16.10;99.90;;;;;;5072350;28;20183;-67
2021/05/25 08:26:35;;;;;;;1.80;1.50;;;15.90;99.90;;;;;;5071222;28;20282;-66
2021/05/25 08:29:01;;;;;;;1.73;1.60;;;15.70;99.90;;;;;;5070639;28;20178;-67
2021/05/25 08:31:27;;;;;;;2.33;1.97;;;15.50;99.90;;;;;;5052050;28;20570;-67
2021/05/25 08:33:52;;;;;;;2.20;1.70;;;15.50;99.90;;;;;;5070162;28;20225;-68
2021/05/25 08:36:18;;;;;;;3.00;1.30;;;15.70;99.90;;;;;;5052242;28;20187;-67
2021/05/25 08:38:44;;;;;;;1.53;1.40;;;15.60;99.90;;;;;;5070476;28;20256;-67
2021/05/25 08:41:10;;;;;;;1.57;1.10;;;15.50;99.90;;;;;;5070000;28;20193;-67
2021/05/25 08:43:36;;;;;;;2.17;1.43;;;15.50;99.90;;;;;;5070446;28;20661;-67
2021/05/25 08:46:03;;;;;;;2.30;1.50;;;15.40;99.90;;;;;;5070709;28;20214;-67
2021/05/25 08:48:29;;;;;;;1.87;1.67;;;15.40;99.90;;;;;;5070484;28;20176;-67
2021/05/25 08:51:00;;;;;;;4.03;1.83;;;15.40;99.90;;;;;;5069791;28;20197;-68
2021/05/25 08:53:27;;;;;;;2.40;1.70;;;15.60;99.90;;;;;;5072904;28;20201;-68
2021/05/25 08:55:53;;;;;;;1.73;1.40;;;15.50;99.90;;;;;;5074169;28;20516;-66
2021/05/25 08:58:21;;;;;;;2.40;1.40;;;15.40;99.90;;;;;;5074110;28;20244;-67
2021/05/25 09:00:47;;;;;;;2.90;1.53;;;15.30;99.90;;;;;;5073488;28;20278;-67
2021/05/25 09:03:17;;;;;;;1.57;1.47;;;15.30;99.90;;;;;;5055696;28;20177;-67
2021/05/25 09:06:07;;;;;;;1.87;1.43;;;15.50;99.90;;;;;;5074167;28;20192;-67
2021/05/25 09:08:33;;;;;;;2.37;1.60;;;15.70;99.90;;;;;;5074064;28;20192;-66
2021/05/25 09:11:10;;;;;;;2.30;1.50;;;15.70;99.90;;;;;;5073045;28;20676;-67
2021/05/25 09:13:36;;;;;;;2.10;1.60;;;15.60;99.90;;;;;;5073301;28;20616;-67
2021/05/25 09:16:03;;;;;;;1.93;1.40;;;15.70;99.90;;;;;;5073410;28;20281;-67
2021/05/25 09:18:30;;;;;;;4.10;2.13;;;15.40;99.90;;;;;;5073286;28;20590;-68
2021/05/25 09:21:01;;;;;;;1.60;1.50;;;15.30;99.90;;;;;;5073343;28;20235;-68
2021/05/25 09:23:33;;;;;;;2.30;1.50;;;15.10;99.90;;;;;;5075268;28;20169;-67
2021/05/25 09:26:09;;;;;;;2.10;1.90;;;14.80;99.90;;;;;;5073815;28;20177;-67
2021/05/25 09:28:51;;;;;;;3.07;2.00;;;14.70;99.90;;;;;;5074707;28;20197;-67
2021/05/25 09:31:19;;;;;;;2.40;2.20;;;14.60;99.90;;;;;;5073066;28;20196;-67
2021/05/25 09:34:03;;;;;;;2.80;1.73;;;14.40;99.90;;;;;;5073181;28;20193;-67
2021/05/25 09:36:29;;;;;;;2.10;1.70;;;14.10;99.90;;;;;;5055453;28;20245;-67
2021/05/25 09:39:04;;;;;;;1.73;1.63;;;14.00;99.90;;;;;;5073259;28;20169;-66
2021/05/25 09:41:56;;;;;;;1.53;1.43;;;13.90;99.90;;;;;;5073721;28;20203;-68
2021/05/25 09:44:22;;;;;;;2.10;2.00;;;13.80;99.90;;;;;;5073641;28;20173;-68
2021/05/25 09:46:48;;;;;;;2.97;2.20;;;13.80;99.90;;;;;;5073737;28;20204;-68
2021/05/25 09:49:14;;;;;;;2.20;2.00;;;13.60;99.90;;;;;;5072962;28;20165;-66
2021/05/25 09:51:39;;;;;;;2.67;1.97;;;13.50;99.90;;;;;;5072964;28;20238;-66
2021/05/25 09:54:21;;;;;;;1.80;1.70;;;13.60;99.90;;;;;;5072948;28;20280;-67
2021/05/25 09:56:58;;;;;;;2.10;1.73;;;13.40;99.90;;;;;;5072887;28;20164;-67
2021/05/25 09:59:35;;;;;;;3.50;1.80;;;13.40;99.90;;;;;;5072301;28;20248;-67
2021/05/25 10:02:20;;;;;;;3.63;1.90;;;13.30;99.90;;;;;;5072674;28;20262;-67
2021/05/25 10:05:04;;;;;;;3.60;2.00;;;13.20;99.90;;;;;;5072274;28;20181;-66
2021/05/25 10:07:30;;;;;;;2.27;1.70;;;13.10;99.90;;;;;;5072567;28;20443;-68
2021/05/25 10:09:57;;;;;;;2.23;2.03;;;13.10;99.90;;;;;;5072262;28;20200;-66
2021/05/25 10:12:25;;;;;;;1.77;1.53;;;13.10;99.90;;;;;;5072379;28;20267;-66
2021/05/25 10:14:51;;;;;;;3.40;2.00;;;13.00;99.90;;;;;;5072422;28;20624;-67
2021/05/25 10:20:01;;;;;;;2.47;2.27;;;12.80;99.90;;;;;;5072613;28;20200;-67
2021/05/25 10:22:26;;;;;;;4.93;2.47;;;12.80;99.90;;;;;;5055276;28;20173;-67
2021/05/25 10:24:54;;;;;;;2.63;2.43;;;12.90;99.90;;;;;;5073404;28;20262;-67
2021/05/25 10:27:19;;;;;;;2.60;2.40;;;12.80;99.90;;;;;;5072602;28;20185;-67
2021/05/25 10:29:45;;;;;;;3.77;2.77;;;12.90;99.90;;;;;;5072079;28;20200;-67
2021/05/25 10:32:25;;;;;;;4.20;3.03;;;12.90;99.90;;;;;;5072161;28;20665;-68
2021/05/25 10:34:52;;;;;;;3.67;2.50;;;13.00;99.90;;;;;;5055170;28;20199;-67
2021/05/25 10:37:19;;;;;;;2.87;2.57;;;13.10;99.90;;;;;;5072693;28;20706;-66
2021/05/25 10:39:45;;;;;;;2.43;2.23;;;13.10;99.90;;;;;;5071813;28;20256;-67
2021/05/25 10:42:20;;;;;;;2.90;2.70;;;13.20;99.90;;;;;;5071557;28;20256;-68
2021/05/25 10:44:57;;;;;;;2.90;2.70;;;13.30;99.90;;;;;;5072050;28;20645;-66
2021/05/25 10:47:36;;;;;;;2.50;2.30;;;13.30;99.90;;;;;;5071549;28;20208;-66
2021/05/25 10:50:16;;;;;;;2.93;2.30;;;13.30;99.90;;;;;;5071815;28;20200;-69
2021/05/25 10:53:05;;;;;;;4.00;2.90;;;13.40;99.90;;;;;;5071741;28;20161;-67
2021/05/25 10:55:32;;;;;;;5.40;2.60;;;13.60;99.90;;;;;;5071606;28;20200;-67
2021/05/25 10:57:59;;;;;;;3.73;2.43;;;13.90;99.90;;;;;;5071451;28;20728;-67
2021/05/25 11:00:36;;;;;;;3.60;2.80;;;13.90;99.90;;;;;;5071442;28;20243;-68
2021/05/25 11:03:18;;;;;;;6.53;5.93;;;13.90;99.90;;;;;;5071850;28;20182;-67
2021/05/25 11:06:06;;;;;;;4.57;3.17;;;13.90;99.90;;;;;;5071701;28;20188;-66
2021/05/25 11:08:39;;;;;;;3.00;2.53;;;14.00;99.90;;;;;;5071496;28;20161;-67
2021/05/25 11:11:16;;;;;;;4.40;2.40;;;14.00;99.90;;;;;;5071162;28;20195;-67
2021/05/25 11:13:48;;;;;;;2.20;2.00;;;14.00;99.90;;;;;;5071312;28;20177;-67
2021/05/25 11:16:34;;;;;;;2.40;2.20;;;13.90;99.90;;;;;;5070469;28;20270;-66
2021/05/25 11:21:46;;;;;;;2.50;2.10;;;13.80;99.90;;;;;;5070889;28;20213;-67
2021/05/25 11:24:34;;;;;;;2.53;2.23;;;13.80;99.90;;;;;;5052976;28;20173;-67
2021/05/25 11:27:25;;;;;;;2.70;2.50;;;13.80;99.90;;;;;;5070957;28;20317;-67
2021/05/25 11:29:53;;;;;;;2.87;2.60;;;13.80;99.90;;;;;;5071307;28;20192;-66
2021/05/25 11:32:24;;;;;;;3.30;2.80;;;13.90;99.90;;;;;;5070846;28;20173;-68
2021/05/25 11:35:02;;;;;;;3.03;2.83;;;14.00;99.90;;;;;;5070944;28;20661;-67
2021/05/25 11:37:32;;;;;;;4.57;2.90;;;14.00;99.90;;;;;;5070896;28;20173;-67
2021/05/25 11:39:58;;;;;;;3.43;3.13;;;14.10;99.90;;;;;;5071485;28;20193;-67
2021/05/25 11:42:29;;;;;;;3.17;2.87;;;14.30;99.90;;;;;;5073278;28;20246;-67
2021/05/25 11:44:55;;;;;;;3.60;2.90;;;14.50;99.90;;;;;;5055982;28;20215;-67
2021/05/25 11:47:22;;;;;;;3.63;2.80;;;14.70;99.90;;;;;;5071831;28;20201;-67
2021/05/25 11:49:48;;;;;;;4.03;2.47;;;15.00;99.90;;;;;;5071823;28;20192;-68
2021/05/25 11:52:31;;;;;;;2.60;2.40;;;15.40;99.90;;;;;;5070737;28;20517;-68
2021/05/25 11:54:59;;;;;;;2.37;2.17;;;15.80;99.90;;;;;;5070878;28;20688;-67
2021/05/25 11:57:44;;;;;;;2.57;2.37;;;15.90;99.90;;;;;;5071032;28;20169;-67
2021/05/25 12:00:10;;;;;;;2.50;2.30;;;15.90;99.90;;;;;;5071105;28;20200;-67
2021/05/25 12:02:36;;;;;;;2.73;2.53;;;16.10;99.90;;;;;;5070684;28;20176;-67
2021/05/25 12:05:04;;;;;;;3.70;3.27;;;16.60;99.90;;;;;;5070913;28;20169;-68
2021/05/25 12:07:30;;;;;;;4.50;2.70;;;16.70;99.90;;;;;;5071293;28;20180;-68
2021/05/25 12:09:59;;;;;;;2.37;2.10;;;17.00;99.90;;;;;;5070705;28;20204;-68
2021/05/25 12:12:28;;;;;;;2.80;2.47;;;17.20;99.90;;;;;;5072498;28;20260;-68
2021/05/25 12:14:54;;;;;;;2.60;2.10;;;17.20;99.90;;;;;;5070697;28;20206;-68
2021/05/25 12:17:24;;;;;;;2.17;2.03;;;17.00;99.90;;;;;;5071102;28;20264;-67
2021/05/25 12:19:57;;;;;;;3.03;2.10;;;16.60;99.90;;;;;;5070998;28;20220;-67
2021/05/25 12:22:43;;;;;;;2.47;2.07;;;16.20;99.90;;;;;;5070743;28;20161;-67
2021/05/25 12:25:17;;;;;;;2.80;2.53;;;15.60;99.90;;;;;;5071017;28;20177;-66
2021/05/25 12:27:43;;;;;;;3.60;2.77;;;15.40;99.90;;;;;;5073870;28;20230;-67
2021/05/25 12:30:09;;;;;;;4.10;2.03;;;15.00;99.90;;;;;;5057212;28;20681;-67
2021/05/25 12:32:35;;;;;;;1.50;1.40;;;14.60;99.90;;;;;;5075148;28;20169;-67
2021/05/25 12:35:02;;;;;;;3.20;2.23;;;14.90;99.90;;;;;;5074916;28;20192;-68
2021/05/25 12:37:29;;;;;;;1.80;1.70;;;15.70;99.90;;;;;;5074753;28;20173;-68
2021/05/25 12:40:09;;;;;;;1.20;1.10;;;15.80;99.90;;;;;;5074349;28;20189;-68
2021/05/25 12:42:37;;;;;;;2.50;1.30;;;15.80;99.90;;;;;;5056536;28;20165;-67
2021/05/25 12:45:04;;;;;;;1.43;1.33;;;16.50;99.90;;;;;;5075015;28;20165;-66
2021/05/25 12:47:52;;;;;;;1.30;1.17;;;17.20;99.90;;;;;;5074804;28;20315;-68
2021/05/25 12:50:36;;;;;;;1.07;0.97;;;17.50;99.90;;;;;;5074514;28;20201;-67
2021/05/25 12:53:14;;;;;;;1.20;1.10;;;17.20;99.90;;;;;;5074119;28;20680;-66
2021/05/25 12:56:02;;;;;;;1.80;1.00;;;17.10;99.90;;;;;;5074101;28;20463;-67
2021/05/25 12:58:45;;;;;;;0.80;0.80;;;17.30;99.90;;;;;;5074032;28;20775;-68
2021/05/25 13:01:28;;;;;;;1.03;0.93;;;17.60;99.90;;;;;;5098780;22;20228;-70
2021/05/25 13:03:56;;;;;;;0.70;0.70;;;17.40;99.90;;;;;;5074599;28;20173;-70
2021/05/25 13:06:31;;;;;;;1.70;1.00;;;17.10;99.90;;;;;;5074941;28;20252;-70
2021/05/25 13:09:12;;;;;;;0.83;0.83;;;17.40;99.90;;;;;;5074463;28;20176;-70
2021/05/25 13:11:38;;;;;;;1.80;0.90;;;17.20;99.90;;;;;;5055679;28;20287;-70
2021/05/25 13:14:04;;;;;;;1.43;0.83;;;17.20;99.90;;;;;;5083833;28;20196;-70